Time;durP1;ratioP1;P1;durP2;ratioP2;P2;SDS_P1;SDS_P2;PMS_P1;PMS_P2;Temp;Humidity;BMP_temperature;BMP_pressure;BME280_temperature;BME280_humidity;BME280_pressure;Samples;Min_cycle;Max_cycle;Signal;HPM_P1;HPM_P2
2021/09/15 00:00:34;;;;;;;29.73;12.98;;;;;;;;;;5057309;28;20051;-57
2021/09/15 00:03:07;;;;;;;34.55;14.52;;;;;;;;;;5054158;28;20499;-57
2021/09/15 00:05:33;;;;;;;28.83;14.05;;;;;;;;;;5054397;28;20376;-57
2021/09/15 00:07:59;;;;;;;29.23;14.10;;;;;;;;;;5056809;28;20055;-57
2021/09/15 00:10:26;;;;;;;32.28;14.30;;;;;;;;;;5057236;28;20068;-57
2021/09/15 00:12:52;;;;;;;26.63;13.23;;;;;;;;;;5056826;28;20131;-57
2021/09/15 00:15:19;;;;;;;25.58;12.50;;;;;;;;;;5055659;28;20049;-57
2021/09/15 00:17:45;;;;;;;29.80;14.18;;;;;;;;;;5053473;28;23756;-57
2021/09/15 00:20:12;;;;;;;26.23;12.63;;;;;;;;;;5056227;28;20102;-57
2021/09/15 00:22:38;;;;;;;31.23;13.82;;;;;;;;;;5056476;28;20056;-58
2021/09/15 00:25:05;;;;;;;30.15;13.88;;;;;;;;;;5056825;28;20553;-57
2021/09/15 00:27:31;;;;;;;28.35;13.82;;;;;;;;;;5054408;28;20106;-57
2021/09/15 00:29:57;;;;;;;26.45;13.90;;;;;;;;;;5068615;28;20048;-58
2021/09/15 00:32:24;;;;;;;28.85;13.93;;;;;;;;;;5056065;28;20065;-56
2021/09/15 00:34:50;;;;;;;30.15;14.07;;;;;;;;;;5056848;28;20052;-57
2021/09/15 00:37:17;;;;;;;25.48;14.25;;;;;;;;;;5056582;28;20045;-56
2021/09/15 00:39:43;;;;;;;31.45;14.18;;;;;;;;;;5056459;28;20071;-57
2021/09/15 00:42:10;;;;;;;26.52;13.48;;;;;;;;;;5054462;28;20041;-57
2021/09/15 00:44:37;;;;;;;23.60;12.35;;;;;;;;;;5056515;28;20049;-57
2021/09/15 00:47:04;;;;;;;28.42;12.95;;;;;;;;;;5060118;28;20406;-56
2021/09/15 00:49:30;;;;;;;23.05;12.13;;;;;;;;;;5060602;28;20075;-58
2021/09/15 00:51:57;;;;;;;26.83;14.57;;;;;;;;;;5060476;28;20044;-57
2021/09/15 00:54:23;;;;;;;26.38;13.15;;;;;;;;;;5059833;28;20068;-57
2021/09/15 00:56:51;;;;;;;31.85;13.25;;;;;;;;;;5055114;28;20125;-57
2021/09/15 00:59:18;;;;;;;26.20;13.10;;;;;;;;;;5059621;28;20103;-57
2021/09/15 01:01:45;;;;;;;26.13;13.15;;;;;;;;;;5060481;28;20072;-57
2021/09/15 01:04:15;;;;;;;24.88;12.43;;;;;;;;;;5060068;28;20049;-57
2021/09/15 01:06:47;;;;;;;28.45;13.82;;;;;;;;;;5061641;28;20087;-58
2021/09/15 01:09:14;;;;;;;28.27;13.20;;;;;;;;;;5058751;28;20127;-57
2021/09/15 01:11:42;;;;;;;26.58;13.05;;;;;;;;;;5055941;28;20049;-57
2021/09/15 01:14:20;;;;;;;25.40;14.38;;;;;;;;;;5058693;28;20065;-57
2021/09/15 01:17:05;;;;;;;;;;;;;;;;;;5060191;28;20517;-57
2021/09/15 01:20:05;;;;;;;19.10;9.95;;;;;;;;;;5052445;28;20011;-58
2021/09/15 01:22:48;;;;;;;21.02;11.50;;;;;;;;;;5032705;28;20080;-58
2021/09/15 01:25:35;;;;;;;21.38;12.35;;;;;;;;;;4959657;28;20109;-57
2021/09/15 01:28:20;;;;;;;22.98;11.80;;;;;;;;;;4973143;28;20082;-57
2021/09/15 01:30:55;;;;;;;26.95;12.98;;;;;;;;;;4973387;28;20078;-57
2021/09/15 01:33:22;;;;;;;21.67;12.90;;;;;;;;;;4972773;28;20516;-55
2021/09/15 01:35:49;;;;;;;29.38;13.27;;;;;;;;;;4957350;28;20058;-58
2021/09/15 01:38:16;;;;;;;19.52;10.90;;;;;;;;;;4973812;28;20093;-57
2021/09/15 01:40:44;;;;;;;21.88;11.13;;;;;;;;;;4973060;28;20152;-57
2021/09/15 01:43:10;;;;;;;22.25;11.85;;;;;;;;;;4972735;28;20086;-57
2021/09/15 01:45:38;;;;;;;28.00;12.43;;;;;;;;;;4956976;28;20081;-58
2021/09/15 01:48:10;;;;;;;21.50;11.85;;;;;;;;;;4972600;28;20051;-57
2021/09/15 01:50:37;;;;;;;27.63;13.10;;;;;;;;;;4972728;28;20133;-57
2021/09/15 01:53:03;;;;;;;23.70;12.27;;;;;;;;;;4973508;28;20054;-58
2021/09/15 01:55:31;;;;;;;22.10;12.07;;;;;;;;;;4970073;28;20094;-57
2021/09/15 01:58:13;;;;;;;22.52;11.40;;;;;;;;;;4984850;28;20070;-57
2021/09/15 02:01:15;;;;;;;31.48;12.05;;;;;;;;;;5019867;28;20480;-57
2021/09/15 02:03:56;;;;;;;24.38;12.57;;;;;;;;;;5019723;28;20503;-57
2021/09/15 02:06:40;;;;;;;22.50;11.77;;;;;;;;;;5013631;28;20175;-57
2021/09/15 02:09:19;;;;;;;24.73;12.98;;;;;;;;;;5016223;28;20530;-57
2021/09/15 02:12:04;;;;;;;24.67;11.60;;;;;;;;;;5015360;28;20041;-57
2021/09/15 02:14:35;;;;;;;21.73;10.45;;;;;;;;;;5015472;28;20550;-58
2021/09/15 02:17:01;;;;;;;19.48;11.10;;;;;;;;;;5003010;28;20120;-57
2021/09/15 02:19:33;;;;;;;20.55;12.20;;;;;;;;;;5012335;28;20076;-57
2021/09/15 02:22:19;;;;;;;29.42;11.98;;;;;;;;;;5031497;28;20563;-57
2021/09/15 02:25:04;;;;;;;25.40;12.77;;;;;;;;;;5031343;28;20132;-57
2021/09/15 02:27:51;;;;;;;28.77;11.95;;;;;;;;;;5027000;28;20081;-57
2021/09/15 02:30:26;;;;;;;20.38;11.93;;;;;;;;;;5015042;28;20108;-57
2021/09/15 02:32:58;;;;;;;20.52;10.60;;;;;;;;;;5014483;28;20045;-57
2021/09/15 02:35:47;;;;;;;21.50;11.65;;;;;;;;;;5047806;28;20068;-57
2021/09/15 02:38:19;;;;;;;23.85;11.80;;;;;;;;;;5062411;28;20041;-57
2021/09/15 02:41:05;;;;;;;19.73;11.95;;;;;;;;;;5069403;28;20056;-57
2021/09/15 02:43:41;;;;;;;23.52;12.18;;;;;;;;;;5058266;28;20140;-57
2021/09/15 02:46:24;;;;;;;26.90;12.05;;;;;;;;;;5060805;28;20066;-57
2021/09/15 02:49:09;;;;;;;23.65;12.70;;;;;;;;;;5065073;28;20475;-57
2021/09/15 02:51:50;;;;;;;22.17;12.10;;;;;;;;;;5068741;28;20041;-57
2021/09/15 02:54:24;;;;;;;30.83;11.75;;;;;;;;;;5059832;28;20072;-57
2021/09/15 02:57:05;;;;;;;27.83;12.90;;;;;;;;;;5055184;28;20132;-57
2021/09/15 02:59:47;;;;;;;27.65;12.45;;;;;;;;;;5054967;28;20114;-57
2021/09/15 03:02:31;;;;;;;20.70;11.43;;;;;;;;;;5068159;28;20418;-57
2021/09/15 03:05:29;;;;;;;21.90;12.82;;;;;;;;;;5068327;28;20052;-57
2021/09/15 03:08:14;;;;;;;25.25;12.40;;;;;;;;;;5057521;28;20045;-57
2021/09/15 03:10:41;;;;;;;24.38;12.10;;;;;;;;;;5060017;28;20040;-57
2021/09/15 03:13:07;;;;;;;25.63;12.38;;;;;;;;;;5058372;28;20033;-58
2021/09/15 03:15:34;;;;;;;24.42;13.43;;;;;;;;;;5057636;28;20163;-57
2021/09/15 03:18:00;;;;;;;27.23;14.02;;;;;;;;;;5053298;28;20091;-57
2021/09/15 03:20:26;;;;;;;28.45;15.27;;;;;;;;;;5055134;28;20076;-57
2021/09/15 03:22:53;;;;;;;24.15;13.10;;;;;;;;;;5056812;28;20449;-57
2021/09/15 03:25:20;;;;;;;26.02;12.48;;;;;;;;;;5059051;28;20075;-58
2021/09/15 03:27:46;;;;;;;25.75;13.43;;;;;;;;;;5059038;28;20048;-57
2021/09/15 03:30:13;;;;;;;27.73;12.80;;;;;;;;;;5055372;28;20044;-57
2021/09/15 03:32:39;;;;;;;25.20;12.60;;;;;;;;;;5053836;28;20080;-57
2021/09/15 03:35:08;;;;;;;28.48;13.93;;;;;;;;;;5057652;28;20049;-57
2021/09/15 03:37:34;;;;;;;22.13;13.18;;;;;;;;;;5055156;28;20049;-57
2021/09/15 03:40:01;;;;;;;29.63;13.23;;;;;;;;;;5051808;28;20503;-57
2021/09/15 03:42:29;;;;;;;25.23;13.80;;;;;;;;;;5059590;28;20041;-57
2021/09/15 03:44:56;;;;;;;25.58;12.40;;;;;;;;;;5068235;28;20045;-57
2021/09/15 03:47:22;;;;;;;28.67;12.95;;;;;;;;;;5068613;28;20056;-58
2021/09/15 03:49:49;;;;;;;29.35;13.60;;;;;;;;;;5059586;28;20136;-57
2021/09/15 03:52:15;;;;;;;23.95;13.18;;;;;;;;;;5058343;28;20044;-57
2021/09/15 03:54:43;;;;;;;27.50;13.00;;;;;;;;;;5068651;28;20075;-57
2021/09/15 03:57:09;;;;;;;24.20;13.35;;;;;;;;;;5053869;28;20045;-57
2021/09/15 03:59:36;;;;;;;26.52;13.05;;;;;;;;;;5053632;28;20100;-57
2021/09/15 04:02:06;;;;;;;24.15;11.82;;;;;;;;;;5056026;28;20076;-57
2021/09/15 04:04:32;;;;;;;29.30;13.70;;;;;;;;;;5060638;28;20040;-57
2021/09/15 04:06:59;;;;;;;28.55;13.13;;;;;;;;;;5066372;28;20178;-57
2021/09/15 04:09:25;;;;;;;26.33;13.75;;;;;;;;;;5051883;28;20116;-58
2021/09/15 04:11:52;;;;;;;21.27;11.77;;;;;;;;;;5068983;28;20043;-57
2021/09/15 04:14:18;;;;;;;25.48;13.98;;;;;;;;;;5066999;28;20106;-57
2021/09/15 04:16:45;;;;;;;28.60;13.85;;;;;;;;;;5055485;28;20086;-57
2021/09/15 04:19:11;;;;;;;33.45;15.45;;;;;;;;;;5064147;28;20071;-57
2021/09/15 04:21:41;;;;;;;25.33;13.85;;;;;;;;;;5058563;28;20071;-57
2021/09/15 04:32:05;;;;;;;28.17;14.80;;;;;;;;;;5066652;28;20093;-57
2021/09/15 04:34:32;;;;;;;30.27;15.98;;;;;;;;;;5063543;28;20102;-57
2021/09/15 04:36:59;;;;;;;34.20;15.05;;;;;;;;;;5063362;28;20133;-57
2021/09/15 04:39:26;;;;;;;27.98;13.68;;;;;;;;;;5050637;28;20043;-57
2021/09/15 04:41:53;;;;;;;28.63;14.40;;;;;;;;;;5067353;28;20056;-57
2021/09/15 04:44:21;;;;;;;29.73;14.70;;;;;;;;;;5066528;28;20072;-57
2021/09/15 04:46:47;;;;;;;27.85;13.15;;;;;;;;;;5063337;28;20036;-57
2021/09/15 04:49:14;;;;;;;30.55;14.80;;;;;;;;;;5063227;28;20040;-57
2021/09/15 04:51:46;;;;;;;29.70;15.98;;;;;;;;;;5062844;28;20443;-57
2021/09/15 04:54:13;;;;;;;30.33;15.10;;;;;;;;;;5067842;28;20040;-58
2021/09/15 04:56:43;;;;;;;26.13;13.55;;;;;;;;;;5067276;28;20481;-57
2021/09/15 04:59:10;;;;;;;31.85;15.73;;;;;;;;;;5055502;28;20084;-57
2021/09/15 05:01:37;;;;;;;27.20;15.48;;;;;;;;;;5054046;28;20053;-57
2021/09/15 05:04:03;;;;;;;36.00;16.02;;;;;;;;;;5057790;28;20165;-57
2021/09/15 05:06:30;;;;;;;32.15;16.75;;;;;;;;;;5063926;28;20043;-57
2021/09/15 05:08:56;;;;;;;30.65;16.58;;;;;;;;;;5052083;28;20037;-57
2021/09/15 05:11:23;;;;;;;40.50;16.67;;;;;;;;;;5066835;28;20049;-57
2021/09/15 05:13:49;;;;;;;31.20;17.42;;;;;;;;;;5064414;28;20053;-57
2021/09/15 05:16:15;;;;;;;32.38;18.27;;;;;;;;;;5061766;28;20076;-57
2021/09/15 05:18:42;;;;;;;35.63;18.30;;;;;;;;;;5052693;28;20053;-57
2021/09/15 05:21:09;;;;;;;30.08;16.90;;;;;;;;;;5067874;28;20053;-57
2021/09/15 05:23:36;;;;;;;35.45;17.63;;;;;;;;;;5064214;28;20041;-57
2021/09/15 05:26:06;;;;;;;36.35;18.13;;;;;;;;;;5054998;28;20069;-57
2021/09/15 05:28:32;;;;;;;39.58;17.48;;;;;;;;;;5059809;28;20383;-57
2021/09/15 05:30:59;;;;;;;47.90;20.60;;;;;;;;;;5066748;28;20395;-57
2021/09/15 05:33:26;;;;;;;43.55;19.70;;;;;;;;;;5057742;28;20111;-57
2021/09/15 05:35:53;;;;;;;43.70;20.52;;;;;;;;;;5070802;28;20055;-57
2021/09/15 05:38:19;;;;;;;44.13;20.52;;;;;;;;;;5071259;28;20041;-57
2021/09/15 05:41:02;;;;;;;41.35;19.00;;;;;;;;;;5070351;28;20055;-57
2021/09/15 05:43:28;;;;;;;41.22;21.35;;;;;;;;;;5071476;28;20052;-57
2021/09/15 05:45:55;;;;;;;41.55;19.50;;;;;;;;;;5069100;28;20128;-57
2021/09/15 05:48:22;;;;;;;48.53;20.80;;;;;;;;;;5060364;28;20047;-57
2021/09/15 05:50:48;;;;;;;47.90;23.45;;;;;;;;;;5055186;28;20460;-57
2021/09/15 05:53:15;;;;;;;52.78;22.60;;;;;;;;;;5057139;28;23324;-57
2021/09/15 05:55:42;;;;;;;50.25;23.73;;;;;;;;;;5066174;28;20048;-56
2021/09/15 05:58:09;;;;;;;54.22;22.05;;;;;;;;;;5066335;28;20052;-57
2021/09/15 06:00:36;;;;;;;49.33;21.80;;;;;;;;;;5060645;28;20071;-57
2021/09/15 06:03:16;;;;;;;55.33;21.15;;;;;;;;;;5070858;28;20087;-58
2021/09/15 06:05:49;;;;;;;52.83;22.30;;;;;;;;;;5060726;28;20055;-57
2021/09/15 06:08:18;;;;;;;51.58;22.77;;;;;;;;;;5062145;28;20083;-57
2021/09/15 06:10:45;;;;;;;56.85;24.25;;;;;;;;;;5060920;28;20045;-57
2021/09/15 06:13:11;;;;;;;61.60;24.42;;;;;;;;;;5058313;28;20041;-57
2021/09/15 06:15:38;;;;;;;62.45;24.33;;;;;;;;;;5067840;28;20079;-57
2021/09/15 06:18:05;;;;;;;58.50;24.90;;;;;;;;;;5093667;28;20387;-57
2021/09/15 06:20:39;;;;;;;45.88;22.55;;;;;;;;;;5067814;28;20049;-57
2021/09/15 06:23:16;;;;;;;59.15;24.63;;;;;;;;;;5067703;28;20552;-57
2021/09/15 06:25:50;;;;;;;52.67;23.38;;;;;;;;;;5067343;28;20076;-57
2021/09/15 06:28:16;;;;;;;51.00;22.48;;;;;;;;;;5067067;28;20044;-58
2021/09/15 06:30:42;;;;;;;43.75;22.77;;;;;;;;;;5067363;28;20054;-58
2021/09/15 06:33:09;;;;;;;51.72;23.63;;;;;;;;;;5063306;28;20079;-57
2021/09/15 06:35:36;;;;;;;40.50;20.08;;;;;;;;;;5061084;28;20049;-57
2021/09/15 06:38:02;;;;;;;33.45;18.63;;;;;;;;;;5061686;28;20040;-57
2021/09/15 06:40:29;;;;;;;32.55;17.55;;;;;;;;;;5063180;28;20094;-57
2021/09/15 06:42:55;;;;;;;29.85;17.27;;;;;;;;;;5066341;28;20073;-57
2021/09/15 06:45:21;;;;;;;32.70;17.02;;;;;;;;;;5063180;28;20041;-57
2021/09/15 06:47:48;;;;;;;24.02;15.63;;;;;;;;;;5058638;28;20076;-57
2021/09/15 06:50:15;;;;;;;28.92;16.67;;;;;;;;;;5059657;28;20073;-56
2021/09/15 06:52:42;;;;;;;25.85;16.60;;;;;;;;;;5059161;28;20036;-56
2021/09/15 06:55:15;;;;;;;25.48;16.70;;;;;;;;;;5059046;28;20114;-56
2021/09/15 06:57:43;;;;;;;29.37;15.80;;;;;;;;;;5063511;28;20128;-56
2021/09/15 07:00:12;;;;;;;28.10;14.80;;;;;;;;;;5066308;28;20080;-56
2021/09/15 07:02:39;;;;;;;24.30;14.60;;;;;;;;;;5066450;28;20048;-56
2021/09/15 07:05:05;;;;;;;25.55;14.13;;;;;;;;;;5062839;28;20090;-55
2021/09/15 07:07:32;;;;;;;26.30;14.02;;;;;;;;;;5061009;28;20060;-56
2021/09/15 07:09:58;;;;;;;24.05;14.70;;;;;;;;;;5063374;28;20048;-56
2021/09/15 07:12:24;;;;;;;25.70;13.85;;;;;;;;;;5067407;28;20488;-55
2021/09/15 07:14:51;;;;;;;24.42;14.43;;;;;;;;;;5054817;28;20049;-56
2021/09/15 07:17:17;;;;;;;21.92;12.68;;;;;;;;;;5066136;28;20041;-56
2021/09/15 07:19:44;;;;;;;26.25;12.23;;;;;;;;;;5065098;28;20041;-56
2021/09/15 07:22:10;;;;;;;22.50;11.27;;;;;;;;;;5062146;28;20096;-56
2021/09/15 07:24:36;;;;;;;23.83;12.10;;;;;;;;;;5059532;28;20045;-56
2021/09/15 07:27:03;;;;;;;22.13;12.00;;;;;;;;;;5061124;28;20032;-56
2021/09/15 07:29:29;;;;;;;19.77;12.02;;;;;;;;;;5065775;28;20099;-57
2021/09/15 07:31:56;;;;;;;23.15;11.18;;;;;;;;;;5059749;28;20051;-56
2021/09/15 07:34:22;;;;;;;19.65;12.02;;;;;;;;;;5063374;28;20047;-56
2021/09/15 07:36:49;;;;;;;23.70;12.15;;;;;;;;;;5066902;28;20052;-56
2021/09/15 07:39:15;;;;;;;19.45;10.23;;;;;;;;;;5064407;28;20430;-56
2021/09/15 07:41:42;;;;;;;18.42;9.63;;;;;;;;;;5067996;28;20399;-56
2021/09/15 07:44:09;;;;;;;16.75;9.35;;;;;;;;;;5063952;28;20067;-57
2021/09/15 07:46:35;;;;;;;18.30;9.70;;;;;;;;;;5062004;28;20127;-56
2021/09/15 07:49:01;;;;;;;18.05;9.65;;;;;;;;;;5063284;28;20056;-56
2021/09/15 07:51:28;;;;;;;12.63;9.07;;;;;;;;;;5066000;28;20125;-57
2021/09/15 07:53:54;;;;;;;13.80;8.50;;;;;;;;;;5062842;28;20144;-56
2021/09/15 07:56:21;;;;;;;11.68;8.43;;;;;;;;;;5061970;28;20574;-57
2021/09/15 07:58:47;;;;;;;13.18;8.15;;;;;;;;;;5063489;28;20074;-58
2021/09/15 08:01:13;;;;;;;12.55;7.78;;;;;;;;;;5062436;28;20505;-56
2021/09/15 08:03:40;;;;;;;12.88;8.55;;;;;;;;;;5066282;28;20072;-56
2021/09/15 08:06:07;;;;;;;14.15;7.88;;;;;;;;;;5063158;28;20097;-56
2021/09/15 08:08:34;;;;;;;12.80;8.18;;;;;;;;;;5063353;28;20044;-56
2021/09/15 08:11:01;;;;;;;12.15;7.82;;;;;;;;;;5065513;28;20387;-57
2021/09/15 08:13:27;;;;;;;13.52;7.70;;;;;;;;;;5062132;28;20044;-56
2021/09/15 08:15:54;;;;;;;11.38;7.13;;;;;;;;;;5064231;28;20037;-57
2021/09/15 08:18:20;;;;;;;10.70;7.20;;;;;;;;;;5063704;28;20057;-56
2021/09/15 08:20:47;;;;;;;11.02;6.72;;;;;;;;;;5061879;28;20143;-57
2021/09/15 08:23:14;;;;;;;9.32;5.90;;;;;;;;;;5065086;28;20044;-56
2021/09/15 08:25:40;;;;;;;12.25;7.07;;;;;;;;;;5061666;28;20115;-57
2021/09/15 08:28:07;;;;;;;13.30;7.00;;;;;;;;;;5062130;28;20076;-56
2021/09/15 08:30:34;;;;;;;9.82;6.20;;;;;;;;;;5066541;28;20048;-56
2021/09/15 08:33:00;;;;;;;11.20;6.75;;;;;;;;;;5062167;28;20076;-57
2021/09/15 08:35:27;;;;;;;9.95;6.35;;;;;;;;;;5065886;28;20049;-58
2021/09/15 08:37:53;;;;;;;12.20;5.78;;;;;;;;;;5062248;28;20086;-58
2021/09/15 08:40:19;;;;;;;8.48;6.05;;;;;;;;;;5060542;28;20045;-58
2021/09/15 08:42:46;;;;;;;8.30;5.80;;;;;;;;;;5056414;28;20068;-58
2021/09/15 08:45:13;;;;;;;10.63;6.63;;;;;;;;;;5058714;28;20530;-58
2021/09/15 08:47:47;;;;;;;11.15;5.68;;;;;;;;;;5066767;28;20491;-58
2021/09/15 08:50:16;;;;;;;9.57;5.97;;;;;;;;;;5067537;28;20095;-58
2021/09/15 08:52:42;;;;;;;10.88;6.45;;;;;;;;;;5062078;28;20052;-58
2021/09/15 08:55:09;;;;;;;8.15;6.25;;;;;;;;;;5055927;28;20101;-58
2021/09/15 08:57:36;;;;;;;8.60;6.05;;;;;;;;;;5055367;28;20189;-57
2021/09/15 09:00:02;;;;;;;9.13;5.55;;;;;;;;;;5060529;28;20179;-57
2021/09/15 09:02:36;;;;;;;9.55;5.70;;;;;;;;;;5069063;28;20044;-57
2021/09/15 09:05:03;;;;;;;8.52;5.60;;;;;;;;;;5057569;28;20123;-58
2021/09/15 09:07:30;;;;;;;9.77;5.80;;;;;;;;;;5061018;28;20048;-58
2021/09/15 09:09:59;;;;;;;7.30;6.10;;;;;;;;;;5062836;28;20045;-58
2021/09/15 09:12:27;;;;;;;8.93;5.93;;;;;;;;;;5070141;28;20048;-58
2021/09/15 09:15:10;;;;;;;10.65;6.15;;;;;;;;;;5069778;28;20047;-58
2021/09/15 09:17:37;;;;;;;7.70;5.57;;;;;;;;;;5068049;28;20135;-58
2021/09/15 09:20:18;;;;;;;8.48;5.15;;;;;;;;;;5063414;28;20045;-58
2021/09/15 09:23:03;;;;;;;10.88;5.90;;;;;;;;;;5058596;28;20081;-58
2021/09/15 09:25:31;;;;;;;7.47;5.28;;;;;;;;;;5056787;28;20065;-58
2021/09/15 09:27:58;;;;;;;5.50;4.28;;;;;;;;;;5057924;28;20072;-58
2021/09/15 09:30:37;;;;;;;5.78;4.68;;;;;;;;;;5056843;28;20127;-58
2021/09/15 09:33:05;;;;;;;7.65;4.57;;;;;;;;;;5054776;28;20072;-57
2021/09/15 09:35:39;;;;;;;6.30;4.90;;;;;;;;;;5057863;28;20181;-58
2021/09/15 09:38:15;;;;;;;8.43;5.00;;;;;;;;;;5069828;28;20044;-58
2021/09/15 09:40:53;;;;;;;8.20;5.00;;;;;;;;;;5061207;28;20056;-58
2021/09/15 09:43:20;;;;;;;6.82;5.35;;;;;;;;;;5059231;28;20044;-58
2021/09/15 09:45:47;;;;;;;7.70;5.30;;;;;;;;;;5059432;28;20097;-58
2021/09/15 09:48:27;;;;;;;6.78;4.80;;;;;;;;;;5056762;28;20063;-58
2021/09/15 09:50:54;;;;;;;11.05;4.80;;;;;;;;;;5055107;28;20142;-57
2021/09/15 09:53:21;;;;;;;12.43;5.15;;;;;;;;;;5059000;28;20191;-58
2021/09/15 09:55:49;;;;;;;8.57;4.85;;;;;;;;;;5059554;28;20049;-58
2021/09/15 09:58:21;;;;;;;9.27;5.07;;;;;;;;;;5058889;28;20627;-58
2021/09/15 10:00:48;;;;;;;8.70;4.72;;;;;;;;;;5060551;28;20040;-58
2021/09/15 10:03:14;;;;;;;8.43;4.85;;;;;;;;;;5056735;28;20055;-58
2021/09/15 10:05:41;;;;;;;6.32;4.63;;;;;;;;;;5056475;28;20057;-57
2021/09/15 10:08:09;;;;;;;6.13;4.63;;;;;;;;;;5063323;28;20483;-57
2021/09/15 10:10:35;;;;;;;8.85;5.20;;;;;;;;;;5061191;28;20091;-58
2021/09/15 10:13:06;;;;;;;7.38;5.15;;;;;;;;;;5060239;28;20072;-58
2021/09/15 10:15:32;;;;;;;5.63;4.95;;;;;;;;;;5069764;28;20049;-58
2021/09/15 10:17:58;;;;;;;9.55;5.47;;;;;;;;;;5054947;28;20486;-58
2021/09/15 10:20:29;;;;;;;6.95;4.85;;;;;;;;;;5070203;28;20060;-58
2021/09/15 10:22:57;;;;;;;8.30;5.32;;;;;;;;;;5059684;28;20487;-58
2021/09/15 10:25:36;;;;;;;9.10;5.57;;;;;;;;;;5065558;28;20127;-58
2021/09/15 10:28:07;;;;;;;9.60;5.50;;;;;;;;;;5066049;28;20060;-58
2021/09/15 10:30:42;;;;;;;6.00;4.80;;;;;;;;;;5058776;28;20051;-58
2021/09/15 10:33:28;;;;;;;7.13;5.22;;;;;;;;;;5056096;28;20041;-58
2021/09/15 10:35:55;;;;;;;6.15;5.25;;;;;;;;;;5054651;28;20076;-58
2021/09/15 10:38:41;;;;;;;10.82;5.15;;;;;;;;;;5058579;28;20049;-58
2021/09/15 10:41:40;;;;;;;8.88;5.70;;;;;;;;;;5069470;28;20123;-58
2021/09/15 10:44:16;;;;;;;8.20;5.78;;;;;;;;;;5051288;28;20091;-58
2021/09/15 10:46:44;;;;;;;8.00;5.90;;;;;;;;;;5043529;28;20135;-58
2021/09/15 10:49:22;;;;;;;7.88;5.45;;;;;;;;;;5050020;28;20072;-58
2021/09/15 10:52:07;;;;;;;11.38;5.80;;;;;;;;;;5042774;28;20049;-58
2021/09/15 10:54:42;;;;;;;7.88;5.35;;;;;;;;;;5043308;28;20136;-58
2021/09/15 10:57:13;;;;;;;7.20;5.38;;;;;;;;;;5046727;28;20099;-58
2021/09/15 10:59:54;;;;;;;5.90;5.05;;;;;;;;;;5031976;28;20136;-58
2021/09/15 11:02:24;;;;;;;6.93;4.65;;;;;;;;;;5051111;28;20084;-58
2021/09/15 11:04:51;;;;;;;9.98;5.32;;;;;;;;;;5043127;28;20495;-58
2021/09/15 11:07:35;;;;;;;9.00;5.07;;;;;;;;;;5043391;28;20088;-58
2021/09/15 11:10:02;;;;;;;6.50;5.15;;;;;;;;;;5049362;28;20444;-58
2021/09/15 11:12:44;;;;;;;7.57;5.15;;;;;;;;;;5043593;28;20065;-58
2021/09/15 11:15:29;;;;;;;7.65;5.25;;;;;;;;;;5046235;28;20577;-59
2021/09/15 11:17:55;;;;;;;9.77;5.15;;;;;;;;;;5047936;28;20094;-58
2021/09/15 11:20:26;;;;;;;6.93;4.82;;;;;;;;;;5063516;28;20090;-58
2021/09/15 11:22:53;;;;;;;6.88;5.38;;;;;;;;;;5058011;28;20077;-58
2021/09/15 11:25:20;;;;;;;6.10;5.00;;;;;;;;;;5056916;28;20049;-59
2021/09/15 11:28:05;;;;;;;6.35;5.05;;;;;;;;;;5056745;28;20542;-59
2021/09/15 11:30:31;;;;;;;9.88;5.10;;;;;;;;;;5055104;28;20053;-58
2021/09/15 11:32:58;;;;;;;6.53;4.78;;;;;;;;;;5069531;28;20052;-59
2021/09/15 11:35:25;;;;;;;11.93;4.70;;;;;;;;;;5068109;28;20099;-58
2021/09/15 11:37:51;;;;;;;6.55;5.25;;;;;;;;;;5058141;28;20045;-58
2021/09/15 11:40:17;;;;;;;12.18;4.97;;;;;;;;;;5057431;28;20048;-59
2021/09/15 11:42:44;;;;;;;6.95;4.75;;;;;;;;;;5057153;28;20058;-59
2021/09/15 11:45:12;;;;;;;5.53;4.80;;;;;;;;;;5054229;28;20648;-59
2021/09/15 11:47:38;;;;;;;7.90;4.40;;;;;;;;;;5054661;28;20146;-59
2021/09/15 11:50:24;;;;;;;6.88;5.05;;;;;;;;;;5067702;28;20551;-58
2021/09/15 11:53:03;;;;;;;6.90;4.57;;;;;;;;;;5057680;28;20057;-58
2021/09/15 11:55:32;;;;;;;7.43;4.97;;;;;;;;;;5057194;28;20051;-58
2021/09/15 11:58:02;;;;;;;4.88;4.13;;;;;;;;;;5056885;28;20069;-59
2021/09/15 12:00:29;;;;;;;9.65;4.82;;;;;;;;;;5057244;28;20040;-59
2021/09/15 12:02:57;;;;;;;7.60;4.63;;;;;;;;;;5054129;28;20048;-59
2021/09/15 12:05:24;;;;;;;7.57;4.88;;;;;;;;;;5062184;28;20056;-58
2021/09/15 12:07:51;;;;;;;7.40;4.95;;;;;;;;;;5064156;28;20049;-58
2021/09/15 12:10:17;;;;;;;6.25;4.85;;;;;;;;;;5059254;28;20402;-59
2021/09/15 12:12:44;;;;;;;5.70;4.40;;;;;;;;;;5061194;28;20079;-59
2021/09/15 12:15:11;;;;;;;6.47;4.28;;;;;;;;;;5056777;28;20045;-58
2021/09/15 12:17:37;;;;;;;5.97;4.95;;;;;;;;;;5068828;28;20052;-59
2021/09/15 12:20:05;;;;;;;7.60;4.93;;;;;;;;;;5067289;28;20045;-59
2021/09/15 12:22:32;;;;;;;5.63;4.18;;;;;;;;;;5059953;28;20049;-59
2021/09/15 12:25:09;;;;;;;6.53;5.10;;;;;;;;;;5057012;28;20041;-58
2021/09/15 12:27:36;;;;;;;8.40;4.43;;;;;;;;;;5056818;28;20075;-58
2021/09/15 12:30:03;;;;;;;6.30;4.72;;;;;;;;;;5060890;28;20055;-58
2021/09/15 12:32:33;;;;;;;8.50;5.18;;;;;;;;;;5055672;28;20380;-58
2021/09/15 12:34:59;;;;;;;7.03;5.28;;;;;;;;;;5066167;28;20044;-58
2021/09/15 12:37:26;;;;;;;6.68;5.32;;;;;;;;;;5060701;28;20116;-58
2021/09/15 12:40:00;;;;;;;6.75;5.65;;;;;;;;;;5062917;28;20052;-58
2021/09/15 12:42:31;;;;;;;6.38;4.88;;;;;;;;;;5070441;28;20482;-58
2021/09/15 12:44:59;;;;;;;9.68;5.25;;;;;;;;;;5056564;28;20473;-58
2021/09/15 12:47:32;;;;;;;7.60;5.45;;;;;;;;;;5069048;28;20452;-56
2021/09/15 12:50:03;;;;;;;7.85;5.50;;;;;;;;;;5070886;28;20044;-57
2021/09/15 12:52:29;;;;;;;8.32;5.75;;;;;;;;;;5064218;28;20036;-58
2021/09/15 12:54:57;;;;;;;9.38;5.95;;;;;;;;;;5060440;28;20087;-57
2021/09/15 12:57:28;;;;;;;7.20;5.60;;;;;;;;;;5059899;28;20047;-57
2021/09/15 12:59:55;;;;;;;11.27;5.80;;;;;;;;;;5055678;28;20422;-57
2021/09/15 13:02:28;;;;;;;7.32;5.63;;;;;;;;;;5062797;28;20044;-58
2021/09/15 13:04:56;;;;;;;10.48;5.65;;;;;;;;;;5070974;28;20068;-57
2021/09/15 13:07:22;;;;;;;6.95;5.13;;;;;;;;;;5063549;28;20044;-57
2021/09/15 13:09:50;;;;;;;8.73;6.00;;;;;;;;;;5070322;28;20578;-58
2021/09/15 13:12:21;;;;;;;8.32;5.05;;;;;;;;;;5071919;28;20517;-58
2021/09/15 13:14:53;;;;;;;5.97;4.88;;;;;;;;;;5068056;28;20066;-58
2021/09/15 13:17:19;;;;;;;5.53;4.65;;;;;;;;;;5065310;28;20091;-57
2021/09/15 13:19:46;;;;;;;8.63;5.15;;;;;;;;;;5059356;28;20041;-58
2021/09/15 13:22:12;;;;;;;6.60;5.03;;;;;;;;;;5058666;28;20049;-57
2021/09/15 13:24:39;;;;;;;10.32;4.80;;;;;;;;;;5068132;28;20095;-58
2021/09/15 13:27:06;;;;;;;6.03;5.43;;;;;;;;;;5066245;28;20499;-57
2021/09/15 13:29:34;;;;;;;6.72;4.63;;;;;;;;;;5066771;28;20139;-57
2021/09/15 13:32:01;;;;;;;6.90;4.80;;;;;;;;;;5067569;28;20498;-57
2021/09/15 13:34:27;;;;;;;8.57;5.18;;;;;;;;;;5062182;28;20048;-57
2021/09/15 13:36:53;;;;;;;11.20;5.28;;;;;;;;;;5060725;28;20041;-57
2021/09/15 13:39:20;;;;;;;7.97;5.30;;;;;;;;;;5069864;28;20107;-57
2021/09/15 13:41:46;;;;;;;6.30;4.80;;;;;;;;;;5066526;28;20496;-58
2021/09/15 13:44:13;;;;;;;7.35;5.07;;;;;;;;;;5066919;28;20036;-57
2021/09/15 13:46:39;;;;;;;16.15;5.00;;;;;;;;;;5063826;28;20075;-58
2021/09/15 13:49:06;;;;;;;7.10;5.35;;;;;;;;;;5064443;28;20041;-57
2021/09/15 13:51:32;;;;;;;6.82;6.13;;;;;;;;;;5068011;28;20048;-57
2021/09/15 13:53:58;;;;;;;6.35;4.60;;;;;;;;;;5064447;28;20060;-57
2021/09/15 13:56:25;;;;;;;9.63;5.20;;;;;;;;;;5068962;28;20052;-57
2021/09/15 13:58:51;;;;;;;6.32;5.32;;;;;;;;;;5066123;28;20517;-57
2021/09/15 14:01:17;;;;;;;7.65;5.78;;;;;;;;;;5064611;28;20052;-57
2021/09/15 14:03:44;;;;;;;11.02;5.95;;;;;;;;;;5067867;28;20105;-58
2021/09/15 14:06:10;;;;;;;9.45;5.63;;;;;;;;;;5066273;28;20040;-56
2021/09/15 14:08:37;;;;;;;8.68;6.25;;;;;;;;;;5066313;28;20037;-57
2021/09/15 14:11:03;;;;;;;11.10;6.57;;;;;;;;;;5064364;28;20072;-56
2021/09/15 14:13:29;;;;;;;9.15;6.03;;;;;;;;;;5063307;28;20117;-57
2021/09/15 14:15:56;;;;;;;8.90;6.60;;;;;;;;;;5066187;28;20501;-57
2021/09/15 14:18:22;;;;;;;13.18;6.78;;;;;;;;;;5066335;28;20411;-57
2021/09/15 14:20:48;;;;;;;9.60;6.38;;;;;;;;;;5069908;28;20411;-57
2021/09/15 14:23:15;;;;;;;9.60;6.22;;;;;;;;;;5066300;28;20514;-56
2021/09/15 14:25:42;;;;;;;9.48;6.72;;;;;;;;;;5063711;28;20502;-57
2021/09/15 14:28:08;;;;;;;11.85;7.47;;;;;;;;;;5063957;28;20124;-57
2021/09/15 14:30:35;;;;;;;12.68;6.80;;;;;;;;;;5062450;28;20048;-57
2021/09/15 14:33:01;;;;;;;13.85;6.22;;;;;;;;;;5065405;28;20053;-57
2021/09/15 14:35:27;;;;;;;8.30;5.75;;;;;;;;;;5065797;28;20093;-57
2021/09/15 14:37:54;;;;;;;7.20;6.18;;;;;;;;;;5065795;28;20102;-57
2021/09/15 14:40:20;;;;;;;8.25;5.45;;;;;;;;;;5065936;28;20047;-57
2021/09/15 14:42:46;;;;;;;9.57;5.50;;;;;;;;;;5066839;28;20056;-57
2021/09/15 14:45:13;;;;;;;7.07;5.50;;;;;;;;;;5066102;28;20044;-57
2021/09/15 14:47:39;;;;;;;6.97;4.65;;;;;;;;;;5069016;28;20517;-57
2021/09/15 14:50:06;;;;;;;6.28;5.22;;;;;;;;;;5069171;28;20043;-57